sensor_id;sensor_type;location;lat;lon;timestamp;temperature;humidity
50955;DHT22;36966;48.064;-0.792;2023-08-31T00:00:31;23.40;47.20
50955;DHT22;36966;48.064;-0.792;2023-08-31T00:02:52;23.40;47.20
50955;DHT22;36966;48.064;-0.792;2023-08-31T00:08:06;23.40;47.30
50955;DHT22;36966;48.064;-0.792;2023-08-31T00:10:25;23.30;47.20
50955;DHT22;36966;48.064;-0.792;2023-08-31T00:12:44;23.30;47.20
50955;DHT22;36966;48.064;-0.792;2023-08-31T00:15:04;23.30;47.20
50955;DHT22;36966;48.064;-0.792;2023-08-31T00:17:24;23.30;47.30
50955;DHT22;36966;48.064;-0.792;2023-08-31T00:19:44;23.30;47.30
50955;DHT22;36966;48.064;-0.792;2023-08-31T00:22:03;23.30;47.30
50955;DHT22;36966;48.064;-0.792;2023-08-31T00:24:22;23.30;47.30
50955;DHT22;36966;48.064;-0.792;2023-08-31T00:26:50;23.20;47.30
50955;DHT22;36966;48.064;-0.792;2023-08-31T00:29:10;23.20;47.30
50955;DHT22;36966;48.064;-0.792;2023-08-31T00:31:35;23.20;47.30
50955;DHT22;36966;48.064;-0.792;2023-08-31T00:33:54;23.20;47.30
50955;DHT22;36966;48.064;-0.792;2023-08-31T00:36:23;23.20;47.30
50955;DHT22;36966;48.064;-0.792;2023-08-31T00:38:42;23.20;47.30
50955;DHT22;36966;48.064;-0.792;2023-08-31T00:41:02;23.20;47.30
50955;DHT22;36966;48.064;-0.792;2023-08-31T00:43:21;23.20;47.30
50955;DHT22;36966;48.064;-0.792;2023-08-31T00:45:40;23.20;47.30
50955;DHT22;36966;48.064;-0.792;2023-08-31T00:47:59;23.20;47.30
50955;DHT22;36966;48.064;-0.792;2023-08-31T00:50:19;23.20;47.30
50955;DHT22;36966;48.064;-0.792;2023-08-31T00:52:38;23.20;47.40
50955;DHT22;36966;48.064;-0.792;2023-08-31T00:54:58;23.20;47.30
50955;DHT22;36966;48.064;-0.792;2023-08-31T00:57:17;23.10;47.40
50955;DHT22;36966;48.064;-0.792;2023-08-31T00:59:36;23.10;47.40
50955;DHT22;36966;48.064;-0.792;2023-08-31T01:04:32;23.10;47.40
50955;DHT22;36966;48.064;-0.792;2023-08-31T01:06:54;23.10;47.30
50955;DHT22;36966;48.064;-0.792;2023-08-31T01:09:22;23.10;47.30
50955;DHT22;36966;48.064;-0.792;2023-08-31T01:11:51;23.10;47.30
50955;DHT22;36966;48.064;-0.792;2023-08-31T01:14:17;23.10;47.30
50955;DHT22;36966;48.064;-0.792;2023-08-31T01:16:39;23.10;47.30
50955;DHT22;36966;48.064;-0.792;2023-08-31T01:19:04;23.00;47.30
50955;DHT22;36966;48.064;-0.792;2023-08-31T01:21:27;23.00;47.30
50955;DHT22;36966;48.064;-0.792;2023-08-31T01:23:49;23.10;47.30
50955;DHT22;36966;48.064;-0.792;2023-08-31T01:26:09;23.10;47.30
50955;DHT22;36966;48.064;-0.792;2023-08-31T01:28:28;23.00;47.30
50955;DHT22;36966;48.064;-0.792;2023-08-31T01:30:48;23.00;47.30
50955;DHT22;36966;48.064;-0.792;2023-08-31T01:33:08;23.00;47.30
50955;DHT22;36966;48.064;-0.792;2023-08-31T01:35:27;23.00;47.30
50955;DHT22;36966;48.064;-0.792;2023-08-31T01:38:07;23.00;47.30
50955;DHT22;36966;48.064;-0.792;2023-08-31T01:40:30;23.00;47.30
50955;DHT22;36966;48.064;-0.792;2023-08-31T01:42:52;23.00;47.30
50955;DHT22;36966;48.064;-0.792;2023-08-31T01:45:14;23.00;47.40
50955;DHT22;36966;48.064;-0.792;2023-08-31T01:47:34;23.00;47.30
50955;DHT22;36966;48.064;-0.792;2023-08-31T01:49:53;22.90;47.40
50955;DHT22;36966;48.064;-0.792;2023-08-31T01:52:13;23.00;47.40
50955;DHT22;36966;48.064;-0.792;2023-08-31T01:54:35;22.90;47.40
50955;DHT22;36966;48.064;-0.792;2023-08-31T01:56:56;23.00;47.50
50955;DHT22;36966;48.064;-0.792;2023-08-31T01:59:16;23.00;47.50
50955;DHT22;36966;48.064;-0.792;2023-08-31T02:01:35;22.90;47.50
50955;DHT22;36966;48.064;-0.792;2023-08-31T02:03:55;22.90;47.50
50955;DHT22;36966;48.064;-0.792;2023-08-31T02:06:15;22.90;47.50
50955;DHT22;36966;48.064;-0.792;2023-08-31T02:08:34;22.90;47.50
50955;DHT22;36966;48.064;-0.792;2023-08-31T02:10:53;22.90;47.60
50955;DHT22;36966;48.064;-0.792;2023-08-31T02:13:14;22.90;47.60
50955;DHT22;36966;48.064;-0.792;2023-08-31T02:15:33;22.90;47.60
50955;DHT22;36966;48.064;-0.792;2023-08-31T02:17:53;22.90;47.60
50955;DHT22;36966;48.064;-0.792;2023-08-31T02:20:13;22.90;47.60
50955;DHT22;36966;48.064;-0.792;2023-08-31T02:22:33;22.90;47.70
50955;DHT22;36966;48.064;-0.792;2023-08-31T02:24:52;22.80;47.70
50955;DHT22;36966;48.064;-0.792;2023-08-31T02:27:12;22.90;47.70
50955;DHT22;36966;48.064;-0.792;2023-08-31T02:29:32;22.80;47.80
50955;DHT22;36966;48.064;-0.792;2023-08-31T02:31:51;22.80;47.90
50955;DHT22;36966;48.064;-0.792;2023-08-31T02:34:10;22.80;47.90
50955;DHT22;36966;48.064;-0.792;2023-08-31T02:36:30;22.80;48.00
50955;DHT22;36966;48.064;-0.792;2023-08-31T02:38:50;22.80;48.00
50955;DHT22;36966;48.064;-0.792;2023-08-31T02:41:10;22.80;48.00
50955;DHT22;36966;48.064;-0.792;2023-08-31T02:43:29;22.80;48.00
50955;DHT22;36966;48.064;-0.792;2023-08-31T02:45:49;22.80;48.10
50955;DHT22;36966;48.064;-0.792;2023-08-31T02:48:08;22.80;48.10
50955;DHT22;36966;48.064;-0.792;2023-08-31T02:50:27;22.80;48.10
50955;DHT22;36966;48.064;-0.792;2023-08-31T02:52:47;22.70;48.10
50955;DHT22;36966;48.064;-0.792;2023-08-31T02:55:06;22.80;48.10
50955;DHT22;36966;48.064;-0.792;2023-08-31T02:57:25;22.80;48.20
50955;DHT22;36966;48.064;-0.792;2023-08-31T02:59:45;22.80;48.10
50955;DHT22;36966;48.064;-0.792;2023-08-31T03:02:05;22.80;48.20
50955;DHT22;36966;48.064;-0.792;2023-08-31T03:06:54;22.70;48.30
50955;DHT22;36966;48.064;-0.792;2023-08-31T03:09:14;22.70;48.40
50955;DHT22;36966;48.064;-0.792;2023-08-31T03:11:36;22.70;48.30
50955;DHT22;36966;48.064;-0.792;2023-08-31T03:16:33;22.70;48.40
50955;DHT22;36966;48.064;-0.792;2023-08-31T03:18:53;22.70;48.40
50955;DHT22;36966;48.064;-0.792;2023-08-31T03:21:41;22.70;48.40
50955;DHT22;36966;48.064;-0.792;2023-08-31T03:24:00;22.70;48.40
50955;DHT22;36966;48.064;-0.792;2023-08-31T03:26:19;22.70;48.40
50955;DHT22;36966;48.064;-0.792;2023-08-31T03:28:53;22.70;48.50
50955;DHT22;36966;48.064;-0.792;2023-08-31T03:31:12;22.70;48.50
50955;DHT22;36966;48.064;-0.792;2023-08-31T03:33:31;22.70;48.50
50955;DHT22;36966;48.064;-0.792;2023-08-31T03:35:51;22.70;48.50
50955;DHT22;36966;48.064;-0.792;2023-08-31T03:38:10;22.70;48.50
50955;DHT22;36966;48.064;-0.792;2023-08-31T03:40:29;22.70;48.50
50955;DHT22;36966;48.064;-0.792;2023-08-31T03:42:51;22.70;48.50
50955;DHT22;36966;48.064;-0.792;2023-08-31T03:45:13;22.70;48.60
50955;DHT22;36966;48.064;-0.792;2023-08-31T03:47:32;22.70;48.60
50955;DHT22;36966;48.064;-0.792;2023-08-31T03:49:51;22.70;48.60
50955;DHT22;36966;48.064;-0.792;2023-08-31T03:57:43;22.70;48.70
50955;DHT22;36966;48.064;-0.792;2023-08-31T04:00:02;22.60;48.90
50955;DHT22;36966;48.064;-0.792;2023-08-31T04:02:27;22.60;49.00
50955;DHT22;36966;48.064;-0.792;2023-08-31T04:04:48;22.60;49.00
50955;DHT22;36966;48.064;-0.792;2023-08-31T04:07:07;22.60;49.10
50955;DHT22;36966;48.064;-0.792;2023-08-31T04:11:56;22.60;49.10
50955;DHT22;36966;48.064;-0.792;2023-08-31T04:14:15;22.60;49.10
50955;DHT22;36966;48.064;-0.792;2023-08-31T04:16:34;22.60;49.30
50955;DHT22;36966;48.064;-0.792;2023-08-31T04:18:54;22.60;49.30
50955;DHT22;36966;48.064;-0.792;2023-08-31T04:21:14;22.60;49.30
50955;DHT22;36966;48.064;-0.792;2023-08-31T04:23:33;22.60;49.40
50955;DHT22;36966;48.064;-0.792;2023-08-31T04:25:52;22.60;49.60
50955;DHT22;36966;48.064;-0.792;2023-08-31T04:28:12;22.60;49.40
50955;DHT22;36966;48.064;-0.792;2023-08-31T04:30:32;22.60;49.60
50955;DHT22;36966;48.064;-0.792;2023-08-31T04:32:52;22.60;49.50
50955;DHT22;36966;48.064;-0.792;2023-08-31T04:35:11;22.60;49.50
50955;DHT22;36966;48.064;-0.792;2023-08-31T04:37:31;22.60;49.50
50955;DHT22;36966;48.064;-0.792;2023-08-31T04:39:51;22.50;49.40
50955;DHT22;36966;48.064;-0.792;2023-08-31T04:42:10;22.50;49.50
50955;DHT22;36966;48.064;-0.792;2023-08-31T04:44:29;22.50;49.60
50955;DHT22;36966;48.064;-0.792;2023-08-31T04:46:49;22.50;49.60
50955;DHT22;36966;48.064;-0.792;2023-08-31T04:49:08;22.50;49.50
50955;DHT22;36966;48.064;-0.792;2023-08-31T04:51:30;22.40;49.70
50955;DHT22;36966;48.064;-0.792;2023-08-31T04:53:51;22.50;49.80
50955;DHT22;36966;48.064;-0.792;2023-08-31T04:56:10;22.40;49.80
50955;DHT22;36966;48.064;-0.792;2023-08-31T04:58:41;22.40;49.80
50955;DHT22;36966;48.064;-0.792;2023-08-31T05:01:00;22.40;49.70
50955;DHT22;36966;48.064;-0.792;2023-08-31T05:03:20;22.40;49.70
50955;DHT22;36966;48.064;-0.792;2023-08-31T05:05:39;22.40;49.80
50955;DHT22;36966;48.064;-0.792;2023-08-31T05:08:01;22.40;49.80
50955;DHT22;36966;48.064;-0.792;2023-08-31T05:10:20;22.40;49.80
50955;DHT22;36966;48.064;-0.792;2023-08-31T05:12:39;22.40;49.80
50955;DHT22;36966;48.064;-0.792;2023-08-31T05:14:58;22.40;49.80
50955;DHT22;36966;48.064;-0.792;2023-08-31T05:17:17;22.40;49.90
50955;DHT22;36966;48.064;-0.792;2023-08-31T05:19:37;22.40;50.00
50955;DHT22;36966;48.064;-0.792;2023-08-31T05:21:56;22.40;49.90
50955;DHT22;36966;48.064;-0.792;2023-08-31T05:24:15;22.40;49.90
50955;DHT22;36966;48.064;-0.792;2023-08-31T05:26:34;22.40;49.90
50955;DHT22;36966;48.064;-0.792;2023-08-31T05:28:54;22.40;49.90
50955;DHT22;36966;48.064;-0.792;2023-08-31T05:31:13;22.40;50.00
50955;DHT22;36966;48.064;-0.792;2023-08-31T05:33:33;22.40;50.00
50955;DHT22;36966;48.064;-0.792;2023-08-31T05:35:53;22.40;50.10
50955;DHT22;36966;48.064;-0.792;2023-08-31T05:38:12;22.30;50.10
50955;DHT22;36966;48.064;-0.792;2023-08-31T05:40:32;22.40;50.20
50955;DHT22;36966;48.064;-0.792;2023-08-31T05:42:51;22.40;50.10
50955;DHT22;36966;48.064;-0.792;2023-08-31T05:45:10;22.30;50.00
50955;DHT22;36966;48.064;-0.792;2023-08-31T05:47:29;22.30;50.10
50955;DHT22;36966;48.064;-0.792;2023-08-31T05:50:08;22.30;50.20
50955;DHT22;36966;48.064;-0.792;2023-08-31T05:52:28;22.30;50.30
50955;DHT22;36966;48.064;-0.792;2023-08-31T05:54:47;22.30;50.30
50955;DHT22;36966;48.064;-0.792;2023-08-31T05:57:07;22.30;50.20
50955;DHT22;36966;48.064;-0.792;2023-08-31T05:59:26;22.30;50.30
50955;DHT22;36966;48.064;-0.792;2023-08-31T06:01:46;22.30;50.40
50955;DHT22;36966;48.064;-0.792;2023-08-31T06:04:05;22.30;50.40
50955;DHT22;36966;48.064;-0.792;2023-08-31T06:06:24;22.30;50.40
50955;DHT22;36966;48.064;-0.792;2023-08-31T06:08:44;22.30;50.40
50955;DHT22;36966;48.064;-0.792;2023-08-31T06:14:02;22.30;50.40
50955;DHT22;36966;48.064;-0.792;2023-08-31T06:16:22;22.30;50.60
50955;DHT22;36966;48.064;-0.792;2023-08-31T06:18:42;22.30;50.50
50955;DHT22;36966;48.064;-0.792;2023-08-31T06:21:02;22.20;50.70
50955;DHT22;36966;48.064;-0.792;2023-08-31T06:23:21;22.30;50.70
50955;DHT22;36966;48.064;-0.792;2023-08-31T06:25:44;22.20;51.20
50955;DHT22;36966;48.064;-0.792;2023-08-31T06:28:05;22.20;51.00
50955;DHT22;36966;48.064;-0.792;2023-08-31T06:30:27;22.20;51.50
50955;DHT22;36966;48.064;-0.792;2023-08-31T06:32:47;22.20;51.50
50955;DHT22;36966;48.064;-0.792;2023-08-31T06:35:06;22.20;51.30
50955;DHT22;36966;48.064;-0.792;2023-08-31T06:37:25;22.30;51.30
50955;DHT22;36966;48.064;-0.792;2023-08-31T06:39:52;22.30;51.30
50955;DHT22;36966;48.064;-0.792;2023-08-31T06:42:11;22.20;51.80
50955;DHT22;36966;48.064;-0.792;2023-08-31T06:44:31;22.20;51.80
50955;DHT22;36966;48.064;-0.792;2023-08-31T06:46:51;22.30;51.90
50955;DHT22;36966;48.064;-0.792;2023-08-31T06:49:10;22.30;51.80
50955;DHT22;36966;48.064;-0.792;2023-08-31T06:51:29;22.20;52.60
50955;DHT22;36966;48.064;-0.792;2023-08-31T06:53:51;22.20;52.80
50955;DHT22;36966;48.064;-0.792;2023-08-31T06:56:10;22.20;52.50
50955;DHT22;36966;48.064;-0.792;2023-08-31T06:58:29;22.20;52.50
50955;DHT22;36966;48.064;-0.792;2023-08-31T07:00:51;22.20;52.70
50955;DHT22;36966;48.064;-0.792;2023-08-31T07:03:11;22.20;53.20
50955;DHT22;36966;48.064;-0.792;2023-08-31T07:05:32;22.20;52.90
50955;DHT22;36966;48.064;-0.792;2023-08-31T07:07:52;22.20;52.90
50955;DHT22;36966;48.064;-0.792;2023-08-31T07:10:13;22.20;53.00
50955;DHT22;36966;48.064;-0.792;2023-08-31T07:12:33;22.20;53.00
50955;DHT22;36966;48.064;-0.792;2023-08-31T07:14:52;22.20;53.10
50955;DHT22;36966;48.064;-0.792;2023-08-31T07:17:12;22.20;53.00
50955;DHT22;36966;48.064;-0.792;2023-08-31T07:19:31;22.20;53.10
50955;DHT22;36966;48.064;-0.792;2023-08-31T07:21:50;22.20;53.00
50955;DHT22;36966;48.064;-0.792;2023-08-31T07:24:10;22.20;53.50
50955;DHT22;36966;48.064;-0.792;2023-08-31T07:26:29;22.20;53.60
50955;DHT22;36966;48.064;-0.792;2023-08-31T07:28:48;22.20;53.60
50955;DHT22;36966;48.064;-0.792;2023-08-31T07:31:07;22.20;53.80
50955;DHT22;36966;48.064;-0.792;2023-08-31T07:33:27;22.20;53.60
50955;DHT22;36966;48.064;-0.792;2023-08-31T07:35:46;22.20;53.90
50955;DHT22;36966;48.064;-0.792;2023-08-31T07:38:06;22.20;53.80
50955;DHT22;36966;48.064;-0.792;2023-08-31T07:40:25;22.20;53.80
50955;DHT22;36966;48.064;-0.792;2023-08-31T07:42:44;22.20;53.90
50955;DHT22;36966;48.064;-0.792;2023-08-31T07:45:04;22.30;53.70
50955;DHT22;36966;48.064;-0.792;2023-08-31T07:47:24;22.30;53.60
50955;DHT22;36966;48.064;-0.792;2023-08-31T07:49:44;22.30;53.60
50955;DHT22;36966;48.064;-0.792;2023-08-31T07:52:03;22.30;53.50
50955;DHT22;36966;48.064;-0.792;2023-08-31T07:54:23;22.30;53.60
50955;DHT22;36966;48.064;-0.792;2023-08-31T07:56:42;22.30;53.50
50955;DHT22;36966;48.064;-0.792;2023-08-31T07:59:13;22.30;53.70
50955;DHT22;36966;48.064;-0.792;2023-08-31T08:01:33;22.30;53.40
50955;DHT22;36966;48.064;-0.792;2023-08-31T08:03:52;22.30;53.60
50955;DHT22;36966;48.064;-0.792;2023-08-31T08:06:11;22.30;53.60
50955;DHT22;36966;48.064;-0.792;2023-08-31T08:08:34;22.30;53.60
50955;DHT22;36966;48.064;-0.792;2023-08-31T08:10:53;22.30;53.70
50955;DHT22;36966;48.064;-0.792;2023-08-31T08:13:13;22.30;53.70
50955;DHT22;36966;48.064;-0.792;2023-08-31T08:15:32;22.40;53.70
50955;DHT22;36966;48.064;-0.792;2023-08-31T08:17:54;22.30;53.80
50955;DHT22;36966;48.064;-0.792;2023-08-31T08:20:13;22.40;53.80
50955;DHT22;36966;48.064;-0.792;2023-08-31T08:22:33;22.40;53.90
50955;DHT22;36966;48.064;-0.792;2023-08-31T08:24:52;22.40;53.90
50955;DHT22;36966;48.064;-0.792;2023-08-31T08:27:12;22.30;54.00
50955;DHT22;36966;48.064;-0.792;2023-08-31T08:29:42;22.40;53.80
50955;DHT22;36966;48.064;-0.792;2023-08-31T08:32:01;22.40;54.10
50955;DHT22;36966;48.064;-0.792;2023-08-31T08:34:22;22.40;54.20
50955;DHT22;36966;48.064;-0.792;2023-08-31T08:36:42;22.40;54.20
50955;DHT22;36966;48.064;-0.792;2023-08-31T08:39:11;22.40;54.20
50955;DHT22;36966;48.064;-0.792;2023-08-31T08:41:31;22.40;54.30
50955;DHT22;36966;48.064;-0.792;2023-08-31T08:43:51;22.40;54.30
50955;DHT22;36966;48.064;-0.792;2023-08-31T08:46:10;22.40;54.30
50955;DHT22;36966;48.064;-0.792;2023-08-31T08:48:30;22.40;54.50
50955;DHT22;36966;48.064;-0.792;2023-08-31T08:50:49;22.40;54.50
50955;DHT22;36966;48.064;-0.792;2023-08-31T08:53:08;22.40;54.60
50955;DHT22;36966;48.064;-0.792;2023-08-31T08:55:34;22.40;54.50
50955;DHT22;36966;48.064;-0.792;2023-08-31T08:57:55;22.40;54.60
50955;DHT22;36966;48.064;-0.792;2023-08-31T09:00:14;22.40;54.80
50955;DHT22;36966;48.064;-0.792;2023-08-31T09:02:34;22.40;54.90
50955;DHT22;36966;48.064;-0.792;2023-08-31T09:04:53;22.40;54.90
50955;DHT22;36966;48.064;-0.792;2023-08-31T09:07:13;22.40;54.90
50955;DHT22;36966;48.064;-0.792;2023-08-31T09:09:47;22.40;55.00
50955;DHT22;36966;48.064;-0.792;2023-08-31T09:12:07;22.40;55.10
50955;DHT22;36966;48.064;-0.792;2023-08-31T09:14:27;22.50;55.10
50955;DHT22;36966;48.064;-0.792;2023-08-31T09:16:47;22.40;55.20
50955;DHT22;36966;48.064;-0.792;2023-08-31T09:19:16;22.40;55.10
50955;DHT22;36966;48.064;-0.792;2023-08-31T09:21:39;22.50;55.30
50955;DHT22;36966;48.064;-0.792;2023-08-31T09:24:00;22.50;55.20
50955;DHT22;36966;48.064;-0.792;2023-08-31T09:26:19;22.40;55.20
50955;DHT22;36966;48.064;-0.792;2023-08-31T09:28:40;22.40;55.30
50955;DHT22;36966;48.064;-0.792;2023-08-31T09:31:06;22.40;55.40
50955;DHT22;36966;48.064;-0.792;2023-08-31T09:33:26;22.40;55.30
50955;DHT22;36966;48.064;-0.792;2023-08-31T09:35:55;22.40;55.40
50955;DHT22;36966;48.064;-0.792;2023-08-31T09:38:14;22.40;55.50
50955;DHT22;36966;48.064;-0.792;2023-08-31T09:40:34;22.40;55.50
50955;DHT22;36966;48.064;-0.792;2023-08-31T09:42:56;22.40;55.60
50955;DHT22;36966;48.064;-0.792;2023-08-31T09:45:26;22.50;55.70
50955;DHT22;36966;48.064;-0.792;2023-08-31T09:47:48;22.40;55.70
50955;DHT22;36966;48.064;-0.792;2023-08-31T09:50:07;22.40;55.70
50955;DHT22;36966;48.064;-0.792;2023-08-31T09:52:27;22.50;55.80
50955;DHT22;36966;48.064;-0.792;2023-08-31T09:54:46;22.50;55.90
50955;DHT22;36966;48.064;-0.792;2023-08-31T09:59:45;22.40;55.90
50955;DHT22;36966;48.064;-0.792;2023-08-31T10:02:05;22.50;55.90
50955;DHT22;36966;48.064;-0.792;2023-08-31T10:04:25;22.50;55.90
50955;DHT22;36966;48.064;-0.792;2023-08-31T10:06:45;22.50;56.00
50955;DHT22;36966;48.064;-0.792;2023-08-31T10:09:07;22.50;56.00
50955;DHT22;36966;48.064;-0.792;2023-08-31T10:11:29;22.50;56.00
50955;DHT22;36966;48.064;-0.792;2023-08-31T10:13:48;22.50;56.00
50955;DHT22;36966;48.064;-0.792;2023-08-31T10:16:08;22.50;56.10
50955;DHT22;36966;48.064;-0.792;2023-08-31T10:18:31;22.50;56.10
50955;DHT22;36966;48.064;-0.792;2023-08-31T10:20:51;22.50;56.10
50955;DHT22;36966;48.064;-0.792;2023-08-31T10:23:10;22.50;56.20
50955;DHT22;36966;48.064;-0.792;2023-08-31T10:28:19;22.50;56.20
50955;DHT22;36966;48.064;-0.792;2023-08-31T10:30:39;22.50;56.20
50955;DHT22;36966;48.064;-0.792;2023-08-31T10:35:34;22.50;56.50
50955;DHT22;36966;48.064;-0.792;2023-08-31T10:38:33;22.50;56.50
50955;DHT22;36966;48.064;-0.792;2023-08-31T10:43:24;22.50;56.60
50955;DHT22;36966;48.064;-0.792;2023-08-31T10:45:44;22.50;56.60
50955;DHT22;36966;48.064;-0.792;2023-08-31T10:48:04;22.50;56.70
50955;DHT22;36966;48.064;-0.792;2023-08-31T10:50:26;22.50;56.80
50955;DHT22;36966;48.064;-0.792;2023-08-31T10:52:45;22.60;56.80
50955;DHT22;36966;48.064;-0.792;2023-08-31T10:55:04;22.60;56.90
50955;DHT22;36966;48.064;-0.792;2023-08-31T10:57:31;22.60;56.90
50955;DHT22;36966;48.064;-0.792;2023-08-31T10:59:54;22.60;57.10
50955;DHT22;36966;48.064;-0.792;2023-08-31T11:04:53;22.60;57.10
50955;DHT22;36966;48.064;-0.792;2023-08-31T11:07:13;22.60;57.20
50955;DHT22;36966;48.064;-0.792;2023-08-31T11:09:36;22.60;57.30
50955;DHT22;36966;48.064;-0.792;2023-08-31T11:11:56;22.70;57.30
50955;DHT22;36966;48.064;-0.792;2023-08-31T11:14:15;22.60;57.30
50955;DHT22;36966;48.064;-0.792;2023-08-31T11:16:43;22.60;57.50
50955;DHT22;36966;48.064;-0.792;2023-08-31T11:19:02;22.60;57.60
50955;DHT22;36966;48.064;-0.792;2023-08-31T11:21:23;22.60;57.70
50955;DHT22;36966;48.064;-0.792;2023-08-31T11:23:43;22.60;57.70
50955;DHT22;36966;48.064;-0.792;2023-08-31T11:26:02;22.70;57.70
50955;DHT22;36966;48.064;-0.792;2023-08-31T11:28:31;22.70;57.70
50955;DHT22;36966;48.064;-0.792;2023-08-31T11:30:51;22.60;57.90
50955;DHT22;36966;48.064;-0.792;2023-08-31T11:33:10;22.60;57.90
50955;DHT22;36966;48.064;-0.792;2023-08-31T11:35:31;22.60;57.90
50955;DHT22;36966;48.064;-0.792;2023-08-31T11:37:55;22.60;58.00
50955;DHT22;36966;48.064;-0.792;2023-08-31T11:40:14;22.60;58.00
50955;DHT22;36966;48.064;-0.792;2023-08-31T11:42:34;22.60;58.20
50955;DHT22;36966;48.064;-0.792;2023-08-31T11:44:56;22.60;58.10
50955;DHT22;36966;48.064;-0.792;2023-08-31T11:47:16;22.60;58.20
50955;DHT22;36966;48.064;-0.792;2023-08-31T11:49:36;22.70;58.20
50955;DHT22;36966;48.064;-0.792;2023-08-31T11:51:55;22.70;60.50
50955;DHT22;36966;48.064;-0.792;2023-08-31T11:54:24;22.60;59.20
50955;DHT22;36966;48.064;-0.792;2023-08-31T11:56:46;22.60;59.30
50955;DHT22;36966;48.064;-0.792;2023-08-31T11:59:10;22.60;59.80
50955;DHT22;36966;48.064;-0.792;2023-08-31T12:01:31;22.60;59.90
50955;DHT22;36966;48.064;-0.792;2023-08-31T12:03:50;22.70;61.10
50955;DHT22;36966;48.064;-0.792;2023-08-31T12:09:09;22.70;60.60
50955;DHT22;36966;48.064;-0.792;2023-08-31T12:11:28;22.70;60.90
50955;DHT22;36966;48.064;-0.792;2023-08-31T12:13:49;22.70;61.10
50955;DHT22;36966;48.064;-0.792;2023-08-31T12:16:12;22.60;61.10
50955;DHT22;36966;48.064;-0.792;2023-08-31T12:18:36;22.70;61.50
50955;DHT22;36966;48.064;-0.792;2023-08-31T12:20:56;22.70;61.30
50955;DHT22;36966;48.064;-0.792;2023-08-31T12:23:16;22.70;61.50
50955;DHT22;36966;48.064;-0.792;2023-08-31T12:25:35;22.70;61.30
50955;DHT22;36966;48.064;-0.792;2023-08-31T12:27:54;22.70;62.00
50955;DHT22;36966;48.064;-0.792;2023-08-31T12:30:14;22.70;61.90
50955;DHT22;36966;48.064;-0.792;2023-08-31T12:32:33;22.70;62.20
50955;DHT22;36966;48.064;-0.792;2023-08-31T12:34:55;22.70;61.70
50955;DHT22;36966;48.064;-0.792;2023-08-31T12:37:15;22.70;62.80
50955;DHT22;36966;48.064;-0.792;2023-08-31T12:39:34;22.70;62.10
50955;DHT22;36966;48.064;-0.792;2023-08-31T12:41:54;22.70;62.60
50955;DHT22;36966;48.064;-0.792;2023-08-31T12:44:13;22.70;62.80
50955;DHT22;36966;48.064;-0.792;2023-08-31T12:46:32;22.70;62.60
50955;DHT22;36966;48.064;-0.792;2023-08-31T12:48:52;22.70;62.70
50955;DHT22;36966;48.064;-0.792;2023-08-31T12:51:11;22.70;63.10
50955;DHT22;36966;48.064;-0.792;2023-08-31T12:53:31;22.70;62.60
50955;DHT22;36966;48.064;-0.792;2023-08-31T12:55:50;22.70;63.70
50955;DHT22;36966;48.064;-0.792;2023-08-31T12:58:10;22.70;63.60
50955;DHT22;36966;48.064;-0.792;2023-08-31T13:00:29;22.70;63.30
50955;DHT22;36966;48.064;-0.792;2023-08-31T13:02:49;22.70;63.00
50955;DHT22;36966;48.064;-0.792;2023-08-31T13:05:09;22.70;62.80
50955;DHT22;36966;48.064;-0.792;2023-08-31T13:07:29;22.70;63.40
50955;DHT22;36966;48.064;-0.792;2023-08-31T13:09:49;22.80;63.30
50955;DHT22;36966;48.064;-0.792;2023-08-31T13:12:08;22.80;62.90
50955;DHT22;36966;48.064;-0.792;2023-08-31T13:14:27;22.80;63.40
50955;DHT22;36966;48.064;-0.792;2023-08-31T13:16:47;22.80;63.30
50955;DHT22;36966;48.064;-0.792;2023-08-31T13:19:06;22.80;63.30
50955;DHT22;36966;48.064;-0.792;2023-08-31T13:21:25;22.80;63.30
50955;DHT22;36966;48.064;-0.792;2023-08-31T13:23:45;22.80;63.30
50955;DHT22;36966;48.064;-0.792;2023-08-31T13:26:04;22.80;63.30
50955;DHT22;36966;48.064;-0.792;2023-08-31T13:28:23;22.80;63.00
50955;DHT22;36966;48.064;-0.792;2023-08-31T13:30:42;22.90;63.00
50955;DHT22;36966;48.064;-0.792;2023-08-31T13:33:02;22.90;62.90
50955;DHT22;36966;48.064;-0.792;2023-08-31T13:35:23;22.90;63.30
50955;DHT22;36966;48.064;-0.792;2023-08-31T13:37:42;22.90;62.60
50955;DHT22;36966;48.064;-0.792;2023-08-31T13:40:02;22.90;62.30
50955;DHT22;36966;48.064;-0.792;2023-08-31T13:42:24;22.90;62.20
50955;DHT22;36966;48.064;-0.792;2023-08-31T13:44:46;22.90;62.30
50955;DHT22;36966;48.064;-0.792;2023-08-31T13:47:05;23.00;62.20
50955;DHT22;36966;48.064;-0.792;2023-08-31T13:49:25;22.90;61.90
50955;DHT22;36966;48.064;-0.792;2023-08-31T13:51:45;23.00;61.80
50955;DHT22;36966;48.064;-0.792;2023-08-31T13:54:04;22.90;61.90
50955;DHT22;36966;48.064;-0.792;2023-08-31T13:56:27;23.00;61.90
50955;DHT22;36966;48.064;-0.792;2023-08-31T13:58:46;23.00;61.70
50955;DHT22;36966;48.064;-0.792;2023-08-31T14:01:05;23.00;61.80
50955;DHT22;36966;48.064;-0.792;2023-08-31T14:03:34;23.00;61.60
50955;DHT22;36966;48.064;-0.792;2023-08-31T14:05:53;23.00;61.80
50955;DHT22;36966;48.064;-0.792;2023-08-31T14:08:12;23.00;61.80
50955;DHT22;36966;48.064;-0.792;2023-08-31T14:10:32;23.00;61.60
50955;DHT22;36966;48.064;-0.792;2023-08-31T14:12:52;23.00;61.60
50955;DHT22;36966;48.064;-0.792;2023-08-31T14:15:14;23.00;61.50
50955;DHT22;36966;48.064;-0.792;2023-08-31T14:17:33;23.10;61.20
50955;DHT22;36966;48.064;-0.792;2023-08-31T14:19:53;23.10;61.30
50955;DHT22;36966;48.064;-0.792;2023-08-31T14:22:13;23.10;61.40
50955;DHT22;36966;48.064;-0.792;2023-08-31T14:24:32;23.10;61.10
50955;DHT22;36966;48.064;-0.792;2023-08-31T14:26:51;23.10;60.90
50955;DHT22;36966;48.064;-0.792;2023-08-31T14:29:13;23.10;60.90
50955;DHT22;36966;48.064;-0.792;2023-08-31T14:31:33;23.10;60.80
50955;DHT22;36966;48.064;-0.792;2023-08-31T14:33:52;23.10;61.30
50955;DHT22;36966;48.064;-0.792;2023-08-31T14:36:15;23.10;61.60
50955;DHT22;36966;48.064;-0.792;2023-08-31T14:38:35;23.10;61.30
50955;DHT22;36966;48.064;-0.792;2023-08-31T14:40:54;23.00;60.90
50955;DHT22;36966;48.064;-0.792;2023-08-31T14:43:13;23.00;60.70
50955;DHT22;36966;48.064;-0.792;2023-08-31T14:45:33;23.00;60.50
50955;DHT22;36966;48.064;-0.792;2023-08-31T14:47:52;23.10;60.70
50955;DHT22;36966;48.064;-0.792;2023-08-31T14:50:11;23.10;60.80
50955;DHT22;36966;48.064;-0.792;2023-08-31T14:52:30;23.10;60.90
50955;DHT22;36966;48.064;-0.792;2023-08-31T14:54:49;23.00;60.90
50955;DHT22;36966;48.064;-0.792;2023-08-31T14:57:09;23.10;61.10
50955;DHT22;36966;48.064;-0.792;2023-08-31T14:59:28;23.10;61.10
50955;DHT22;36966;48.064;-0.792;2023-08-31T15:01:48;23.10;60.90
50955;DHT22;36966;48.064;-0.792;2023-08-31T15:04:07;23.10;61.30
50955;DHT22;36966;48.064;-0.792;2023-08-31T15:06:26;23.10;61.30
50955;DHT22;36966;48.064;-0.792;2023-08-31T15:08:46;23.10;61.40
50955;DHT22;36966;48.064;-0.792;2023-08-31T15:11:06;23.00;61.60